Sabahat Telli — TCSQ6 — position and weather

sailwx.info

Track history (hours):
 
Tides and Currents Weather Stations Pressure Air Temp Water Temp Dewpoint Dewpoint Depression Visibility Wind Speed Wind Dir Waves Ship Positions

Sabahat Telli

Last reported at 2014-Aug-27 03:20 UTC. Time now 2014-Aug-28 01:17 UTC.
Position N 40°45' E 029°30'.

Length 99 m; draft 5.3 m.

Type: Tanker. MMSI: 271000961.

Date/timePositionNaut miles runAvg speedWind from/ knotsBaromVisibWave heightAir tempDewpointWater temp
2014-Aug-27 03:20N 40°45' E 029°30'7 8.8
2014-Aug-27 02:33N 40°44' E 029°21'8 8.3
2014-Aug-27 01:33N 40°44' E 029°10'0 0.0
2014-Aug-27 00:33N 40°44' E 029°10'0 0.0
2014-Aug-26 23:33N 40°44' E 029°10'2 2.4
2014-Aug-26 22:33N 40°47' E 029°09'1111.3
2014-Aug-26 21:33N 40°53' E 028°57'43 6.1
2014-Aug-26 14:33N 41°29' E 029°28'26311.8
2014-Aug-25 16:16N 43°54' E 034°27'811.7
2014-Aug-25 15:33N 43°59' E 034°37'1211.5
2014-Aug-25 14:33N 44°06' E 034°50'1411.6
2014-Aug-25 13:19N 44°13' E 035°07'911.8
2014-Aug-25 12:33N 44°18' E 035°17'5212.0
2014-Aug-25 08:14N 44°46' E 036°19'51 7.2
2014-Aug-25 01:15N 45°30' E 036°54'1211.6
2014-Aug-25 00:15N 45°26' E 037°09'  
2014-Aug-20 14:21N 44°15' E 035°06'1112.8
2014-Aug-20 13:29N 44°09' E 034°53'1212.6
2014-Aug-20 12:33N 44°03' E 034°39'29012.0
2014-Aug-19 12:22N 41°20' E 029°13'26 9.2
2014-Aug-19 09:33N 40°57' E 028°59'5 0.9
2014-Aug-19 04:21N 40°57' E 028°52'  
Track history (hours):
 
Tides and Currents Weather Stations Pressure Air Temp Water Temp Dewpoint Dewpoint Depression Visibility Wind Speed Wind Dir Waves Ship Positions

Sabahat Telli

Last reported at 2014-Aug-27 03:20 UTC. Time now 2014-Aug-28 01:17 UTC.
Position N 40°45' E 029°30'.

Length 99 m; draft 5.3 m.

Type: Tanker. MMSI: 271000961.

Date/timePositionNaut miles runAvg speedWind from/ knotsBaromVisibWave heightAir tempDewpointWater temp
2014-Aug-27 03:20N 40°45' E 029°30'7 8.8
2014-Aug-27 02:33N 40°44' E 029°21'8 8.3
2014-Aug-27 01:33N 40°44' E 029°10'0 0.0
2014-Aug-27 00:33N 40°44' E 029°10'0 0.0
2014-Aug-26 23:33N 40°44' E 029°10'2 2.4
2014-Aug-26 22:33N 40°47' E 029°09'1111.3
2014-Aug-26 21:33N 40°53' E 028°57'43 6.1
2014-Aug-26 14:33N 41°29' E 029°28'26311.8
2014-Aug-25 16:16N 43°54' E 034°27'811.7
2014-Aug-25 15:33N 43°59' E 034°37'1211.5
2014-Aug-25 14:33N 44°06' E 034°50'1411.6
2014-Aug-25 13:19N 44°13' E 035°07'911.8
2014-Aug-25 12:33N 44°18' E 035°17'5212.0
2014-Aug-25 08:14N 44°46' E 036°19'51 7.2
2014-Aug-25 01:15N 45°30' E 036°54'1211.6
2014-Aug-25 00:15N 45°26' E 037°09'  
2014-Aug-20 14:21N 44°15' E 035°06'1112.8
2014-Aug-20 13:29N 44°09' E 034°53'1212.6
2014-Aug-20 12:33N 44°03' E 034°39'29012.0
2014-Aug-19 12:22N 41°20' E 029°13'26 9.2
2014-Aug-19 09:33N 40°57' E 028°59'5 0.9
2014-Aug-19 04:21N 40°57' E 028°52'  

Dump ship's entire track history